Time;durP1;ratioP1;P1;durP2;ratioP2;P2;SDS_P1;SDS_P2;PMS_P1;PMS_P2;Temp;Humidity;BMP_temperature;BMP_pressure;BME280_temperature;BME280_humidity;BME280_pressure;Samples;Min_cycle;Max_cycle;Signal;HPM_P1;HPM_P2
2022/09/01 00:01:26;;;;;;;18.02;14.75;;;22.40;99.90;;;;;;5057868;28;20020;-59
2022/09/01 00:03:54;;;;;;;24.38;21.73;;;22.40;99.90;;;;;;5059697;28;20059;-57
2022/09/01 00:06:22;;;;;;;52.70;43.97;;;22.40;99.90;;;;;;5062185;28;20040;-59
2022/09/01 00:08:53;;;;;;;52.35;44.25;;;22.40;99.90;;;;;;5057663;28;20036;-57
2022/09/01 00:11:20;;;;;;;61.80;50.90;;;22.40;99.90;;;;;;5120790;27;20028;-57
2022/09/01 00:13:46;;;;;;;52.65;45.67;;;22.40;99.90;;;;;;5120179;27;20023;-57
2022/09/01 00:16:15;;;;;;;29.33;25.27;;;22.40;99.90;;;;;;5072270;28;20035;-57
2022/09/01 00:18:42;;;;;;;25.90;19.92;;;22.50;99.90;;;;;;5119560;27;20394;-57
2022/09/01 00:21:09;;;;;;;18.17;16.13;;;22.50;99.90;;;;;;5122623;27;20156;-57
2022/09/01 00:23:36;;;;;;;16.98;14.27;;;22.50;99.90;;;;;;5126398;27;20378;-57
2022/09/01 00:26:02;;;;;;;18.30;14.15;;;22.50;99.90;;;;;;5088387;28;20550;-57
2022/09/01 00:28:28;;;;;;;17.05;13.23;;;22.40;99.90;;;;;;5068249;28;20043;-56
2022/09/01 00:30:54;;;;;;;17.63;14.20;;;22.40;99.90;;;;;;5071070;28;20658;-59
2022/09/01 00:33:20;;;;;;;17.35;13.38;;;22.50;99.90;;;;;;5084744;28;20040;-56
2022/09/01 00:35:46;;;;;;;14.82;13.27;;;22.40;99.90;;;;;;5120398;28;20039;-59
2022/09/01 00:38:12;;;;;;;17.45;12.82;;;22.40;99.90;;;;;;5124158;28;20070;-59
2022/09/01 00:40:38;;;;;;;15.13;13.25;;;22.50;99.90;;;;;;5116016;28;20070;-59
2022/09/01 00:43:13;;;;;;;17.27;13.20;;;22.40;99.90;;;;;;5083225;28;20118;-57
2022/09/01 00:45:40;;;;;;;16.70;13.20;;;22.40;99.90;;;;;;5093988;28;20035;-58
2022/09/01 00:48:08;;;;;;;16.02;12.52;;;22.40;99.90;;;;;;5126874;27;20494;-56
2022/09/01 00:50:35;;;;;;;13.82;11.75;;;22.30;99.90;;;;;;5071042;27;20079;-57
2022/09/01 00:53:03;;;;;;;17.08;10.85;;;22.30;99.90;;;;;;5093388;27;20039;-58
2022/09/01 00:55:31;;;;;;;17.85;12.80;;;22.30;99.90;;;;;;5076923;27;20031;-56
2022/09/01 00:58:00;;;;;;;16.83;11.57;;;22.30;99.90;;;;;;5125914;27;20096;-55
2022/09/01 01:00:29;;;;;;;16.38;11.50;;;22.20;99.90;;;;;;5123410;27;20577;-59
2022/09/01 01:02:56;;;;;;;14.38;11.27;;;22.20;99.90;;;;;;5124262;27;20107;-58
2022/09/01 01:05:31;;;;;;;16.27;12.02;;;22.20;99.90;;;;;;5126104;27;20027;-56
2022/09/01 01:08:00;;;;;;;13.77;11.10;;;22.20;99.90;;;;;;5121858;27;20027;-56
2022/09/01 01:10:31;;;;;;;14.07;10.63;;;22.30;99.90;;;;;;5129160;27;20038;-58
2022/09/01 01:13:03;;;;;;;13.05;11.20;;;22.30;99.90;;;;;;5097122;27;20118;-56
2022/09/01 01:15:29;;;;;;;14.85;11.20;;;22.30;99.90;;;;;;5120595;27;20086;-58
2022/09/01 01:17:55;;;;;;;13.57;10.73;;;22.30;99.90;;;;;;5120740;27;20430;-56
2022/09/01 01:23:23;;;;;;;14.00;11.30;;;22.30;99.90;;;;;;5130308;27;20025;-57
2022/09/01 01:25:59;;;;;;;14.48;10.55;;;22.30;99.90;;;;;;5125702;27;20047;-57
2022/09/01 01:28:34;;;;;;;12.80;10.65;;;22.30;99.90;;;;;;5127276;27;20162;-57
2022/09/01 01:31:12;;;;;;;13.75;10.50;;;22.30;99.90;;;;;;5122301;27;20034;-58
2022/09/01 01:33:40;;;;;;;13.00;10.98;;;22.20;99.90;;;;;;5123539;27;20019;-58
2022/09/01 01:36:35;;;;;;;14.60;10.70;;;22.20;99.90;;;;;;5089151;27;20032;-57
2022/09/01 01:39:14;;;;;;;14.73;10.85;;;22.20;99.90;;;;;;5123597;27;20166;-57
2022/09/01 01:41:44;;;;;;;12.23;10.30;;;22.20;99.90;;;;;;5122779;27;20043;-56
2022/09/01 01:44:12;;;;;;;11.35;9.60;;;22.20;99.90;;;;;;5124988;27;20031;-56
2022/09/01 01:46:42;;;;;;;17.23;10.40;;;22.20;99.90;;;;;;5127514;27;20959;-58
2022/09/01 01:49:12;;;;;;;11.23;9.45;;;22.10;99.90;;;;;;5123748;27;20032;-58
2022/09/01 01:51:38;;;;;;;17.48;10.13;;;22.10;99.90;;;;;;5121462;27;20512;-56
2022/09/01 01:54:06;;;;;;;14.40;9.02;;;22.10;99.90;;;;;;5122365;27;20028;-58
2022/09/01 01:56:36;;;;;;;10.80;9.70;;;22.00;99.90;;;;;;5129210;27;20039;-59
2022/09/01 01:59:02;;;;;;;13.55;10.07;;;22.00;99.90;;;;;;5089447;27;20501;-56
2022/09/01 02:01:30;;;;;;;11.82;9.13;;;22.00;99.90;;;;;;5122742;27;20108;-55
2022/09/01 02:03:57;;;;;;;11.95;10.00;;;22.00;99.90;;;;;;5126634;27;20606;-58
2022/09/01 02:06:25;;;;;;;11.02;9.30;;;22.00;99.90;;;;;;5125685;27;20474;-59
2022/09/01 02:08:57;;;;;;;16.42;10.93;;;22.00;99.90;;;;;;5128208;27;20027;-57
2022/09/01 02:11:25;;;;;;;17.48;10.98;;;21.90;99.90;;;;;;5125123;27;20039;-57
2022/09/01 02:13:55;;;;;;;14.85;9.65;;;21.70;99.90;;;;;;5122339;27;20494;-57
2022/09/01 02:16:24;;;;;;;17.05;10.30;;;21.70;99.90;;;;;;5127341;27;20031;-57
2022/09/01 02:18:50;;;;;;;13.60;9.68;;;21.80;99.90;;;;;;5080941;27;20255;-57
2022/09/01 02:21:19;;;;;;;15.23;9.95;;;21.80;99.90;;;;;;5068364;28;20036;-56
2022/09/01 02:23:47;;;;;;;12.73;9.68;;;21.70;99.90;;;;;;5125767;27;20027;-56
2022/09/01 02:26:15;;;;;;;11.15;9.70;;;21.70;99.90;;;;;;5116725;27;20052;-58
2022/09/01 02:28:41;;;;;;;10.80;8.60;;;21.70;99.90;;;;;;5105017;27;20024;-57
2022/09/01 02:31:10;;;;;;;13.52;8.68;;;21.70;99.90;;;;;;5068035;28;20036;-57
2022/09/01 02:33:37;;;;;;;17.27;9.75;;;21.70;99.90;;;;;;5105954;27;20495;-58
2022/09/01 02:36:12;;;;;;;18.30;9.98;;;21.70;99.90;;;;;;5103839;27;20020;-60
2022/09/01 02:38:41;;;;;;;13.43;9.10;;;21.70;99.90;;;;;;5102133;27;20024;-57
2022/09/01 02:41:07;;;;;;;10.95;8.77;;;21.60;99.90;;;;;;5107228;27;20044;-59
2022/09/01 02:43:33;;;;;;;11.52;8.68;;;21.70;99.90;;;;;;5107365;27;20048;-58
2022/09/01 02:46:00;;;;;;;14.65;9.48;;;21.60;99.90;;;;;;5104511;27;20107;-59
2022/09/01 02:48:36;;;;;;;11.90;8.63;;;21.70;99.90;;;;;;5102475;28;20020;-59
2022/09/01 02:51:04;;;;;;;10.65;8.68;;;21.70;99.90;;;;;;5102198;27;20122;-59
2022/09/01 02:53:34;;;;;;;11.63;9.23;;;21.60;99.90;;;;;;5111898;27;20073;-60
2022/09/01 02:56:01;;;;;;;11.75;8.55;;;21.60;99.90;;;;;;5107412;27;20042;-59
2022/09/01 02:58:34;;;;;;;12.25;8.73;;;21.60;99.90;;;;;;5093724;27;20111;-58
2022/09/01 03:01:00;;;;;;;12.95;9.27;;;21.60;99.90;;;;;;5104326;27;20024;-57
2022/09/01 03:03:26;;;;;;;10.30;8.27;;;21.70;99.90;;;;;;5108762;27;20080;-57
2022/09/01 03:05:55;;;;;;;9.05;8.13;;;21.60;99.90;;;;;;5106303;27;20029;-56
2022/09/01 03:08:23;;;;;;;11.07;8.93;;;21.50;99.90;;;;;;5108208;28;20457;-55
2022/09/01 03:10:50;;;;;;;10.32;8.98;;;21.60;99.90;;;;;;5110882;27;20042;-58
2022/09/01 03:13:26;;;;;;;10.13;8.48;;;21.60;99.90;;;;;;5099780;27;20507;-59
2022/09/01 03:15:51;;;;;;;9.70;8.25;;;21.60;99.90;;;;;;5107937;27;20035;-57
2022/09/01 03:18:17;;;;;;;10.60;8.77;;;21.60;99.90;;;;;;5107417;27;20403;-56
2022/09/01 03:20:51;;;;;;;11.68;8.75;;;21.60;99.90;;;;;;5110574;27;20031;-56
2022/09/01 03:23:18;;;;;;;11.45;8.40;;;;;;;;;;5104141;28;20032;-56
2022/09/01 03:25:46;;;;;;;10.50;8.40;;;21.60;99.90;;;;;;5111931;27;20052;-59
2022/09/01 03:28:14;;;;;;;9.95;8.25;;;21.50;99.90;;;;;;5108846;27;20059;-58
2022/09/01 03:30:48;;;;;;;11.65;7.82;;;21.50;99.90;;;;;;5107497;27;20399;-58
2022/09/01 03:33:16;;;;;;;10.50;7.82;;;21.50;99.90;;;;;;5104346;27;20040;-60
2022/09/01 03:35:42;;;;;;;11.40;7.47;;;21.40;99.90;;;;;;5099564;28;20027;-57
2022/09/01 03:38:11;;;;;;;11.25;8.35;;;21.40;99.90;;;;;;5106960;28;20087;-58
2022/09/01 03:40:39;;;;;;;13.27;7.90;;;21.20;99.90;;;;;;5106273;27;20032;-57
2022/09/01 03:43:11;;;;;;;9.57;7.68;;;21.20;99.90;;;;;;5104435;27;20475;-60
2022/09/01 03:45:37;;;;;;;11.18;7.82;;;21.20;99.90;;;;;;5108344;27;20467;-58
2022/09/01 03:48:08;;;;;;;12.65;7.70;;;21.10;99.90;;;;;;5104948;27;20115;-58
2022/09/01 03:50:39;;;;;;;9.35;7.40;;;21.10;99.90;;;;;;5098141;27;20040;-57
2022/09/01 03:53:06;;;;;;;;;;;21.00;99.90;;;;;;5107629;27;20042;-59
2022/09/01 03:55:33;;;;;;;10.55;7.85;;;21.00;99.90;;;;;;5103357;27;20383;-59
2022/09/01 03:58:05;;;;;;;11.50;8.02;;;21.00;99.90;;;;;;5030591;28;20044;-60
2022/09/01 04:00:34;;;;;;;9.52;7.60;;;20.90;99.90;;;;;;5061449;28;20432;-58
2022/09/01 04:03:02;;;;;;;10.23;7.07;;;20.80;99.90;;;;;;5063650;28;20491;-60
2022/09/01 04:05:32;;;;;;;21.00;8.85;;;20.80;99.90;;;;;;5057172;28;20477;-56
2022/09/01 04:08:02;;;;;;;10.10;7.60;;;20.80;99.90;;;;;;5061603;28;20484;-57
2022/09/01 04:10:33;;;;;;;10.32;7.22;;;20.80;99.90;;;;;;5067232;28;20020;-59
2022/09/01 04:13:00;;;;;;;8.70;7.53;;;20.80;99.90;;;;;;5057277;28;20036;-58
2022/09/01 04:15:27;;;;;;;9.35;6.72;;;20.80;99.90;;;;;;5053463;28;20025;-57
2022/09/01 04:18:09;;;;;;;8.50;7.45;;;20.80;99.90;;;;;;5060068;28;20056;-57
2022/09/01 04:20:48;;;;;;;10.65;6.97;;;20.80;99.90;;;;;;5062868;28;20044;-58
2022/09/01 04:23:24;;;;;;;9.18;7.25;;;20.80;99.90;;;;;;5061215;28;20442;-58
2022/09/01 04:25:50;;;;;;;8.75;7.00;;;20.80;99.90;;;;;;5061540;28;20052;-59
2022/09/01 04:28:23;;;;;;;11.02;6.93;;;20.80;99.90;;;;;;5072167;28;20035;-58
2022/09/01 04:30:55;;;;;;;8.70;6.90;;;20.80;99.90;;;;;;5109858;28;20114;-59
2022/09/01 04:33:23;;;;;;;8.10;7.13;;;20.70;99.90;;;;;;5107531;28;20028;-58
2022/09/01 04:35:53;;;;;;;10.23;5.70;;;20.70;99.90;;;;;;5105609;28;20047;-57
2022/09/01 04:38:20;;;;;;;9.65;6.90;;;20.70;99.90;;;;;;5109088;28;20052;-56
2022/09/01 04:40:48;;;;;;;10.55;6.72;;;20.80;99.90;;;;;;5107986;28;20505;-57
2022/09/01 04:43:15;;;;;;;11.82;7.70;;;20.80;99.90;;;;;;5103147;28;20038;-58
2022/09/01 04:45:41;;;;;;;8.50;6.80;;;20.90;99.90;;;;;;5107653;28;20035;-58
2022/09/01 04:48:08;;;;;;;12.15;7.00;;;20.90;99.90;;;;;;5096248;28;20028;-59
2022/09/01 04:50:34;;;;;;;10.18;6.53;;;20.90;99.90;;;;;;5095633;28;20122;-56
2022/09/01 04:53:03;;;;;;;9.88;6.32;;;20.90;99.90;;;;;;5105849;28;20130;-58
2022/09/01 04:55:29;;;;;;;9.50;6.57;;;20.90;99.90;;;;;;5099154;28;20476;-56
2022/09/01 04:57:57;;;;;;;9.30;6.80;;;21.00;99.90;;;;;;5099850;28;20035;-56
2022/09/01 05:00:26;;;;;;;10.73;6.20;;;21.00;99.90;;;;;;5095062;28;20032;-56
2022/09/01 05:03:03;;;;;;;11.32;7.07;;;20.90;99.90;;;;;;5099074;28;20081;-59
2022/09/01 05:05:41;;;;;;;7.60;5.78;;;21.00;99.90;;;;;;5097755;28;20036;-57
2022/09/01 05:08:17;;;;;;;6.80;5.63;;;21.00;99.90;;;;;;5101109;28;20039;-58
2022/09/01 05:10:48;;;;;;;8.95;5.10;;;21.00;99.90;;;;;;5097935;28;20110;-59
2022/09/01 05:13:16;;;;;;;7.07;5.40;;;21.00;99.90;;;;;;5103496;28;20384;-57
2022/09/01 05:15:47;;;;;;;10.13;5.75;;;20.90;99.90;;;;;;5104909;28;20032;-59
2022/09/01 05:18:15;;;;;;;8.00;4.40;;;20.90;99.90;;;;;;5100262;28;20063;-56
2022/09/01 05:20:41;;;;;;;8.60;3.92;;;20.90;99.90;;;;;;5078457;28;20387;-58
2022/09/01 05:23:11;;;;;;;10.57;4.85;;;20.90;99.90;;;;;;5101151;28;20024;-58
2022/09/01 05:25:42;;;;;;;6.65;5.65;;;;;;;;;;5101505;28;20063;-53
2022/09/01 05:28:11;;;;;;;5.80;4.57;;;20.80;99.90;;;;;;5105699;28;20104;-55
2022/09/01 05:30:39;;;;;;;8.13;5.03;;;20.90;99.90;;;;;;5099508;28;20502;-56
2022/09/01 05:33:11;;;;;;;9.23;4.65;;;20.90;99.90;;;;;;5096456;28;20472;-56
2022/09/01 05:35:42;;;;;;;7.30;4.85;;;20.80;99.90;;;;;;5105967;27;20119;-56
2022/09/01 05:38:11;;;;;;;7.88;4.05;;;20.70;99.90;;;;;;5110553;27;20044;-56
2022/09/01 05:40:42;;;;;;;8.38;3.83;;;20.70;99.90;;;;;;5105477;27;20387;-56
2022/09/01 05:43:12;;;;;;;6.03;3.63;;;20.70;99.90;;;;;;5108872;27;20379;-56
2022/09/01 05:45:43;;;;;;;6.55;4.15;;;20.70;99.90;;;;;;5106164;27;20035;-57
2022/09/01 05:48:16;;;;;;;12.70;4.22;;;20.70;99.90;;;;;;5109614;27;20026;-57
2022/09/01 05:50:42;;;;;;;4.30;3.88;;;20.60;99.90;;;;;;5108424;27;20039;-56
2022/09/01 05:53:14;;;;;;;4.38;3.83;;;20.60;99.90;;;;;;5108316;27;20023;-56
2022/09/01 05:55:42;;;;;;;5.35;4.30;;;20.70;99.90;;;;;;5108030;27;20638;-56
2022/09/01 05:58:12;;;;;;;6.47;3.97;;;20.80;99.90;;;;;;5105637;27;20042;-56
2022/09/01 06:00:40;;;;;;;9.95;3.80;;;20.70;99.90;;;;;;5103412;27;20403;-56
2022/09/01 06:03:07;;;;;;;10.82;4.55;;;20.60;99.90;;;;;;5107160;27;20038;-56
2022/09/01 06:05:35;;;;;;;5.22;4.20;;;20.70;99.90;;;;;;5108899;27;20031;-56
2022/09/01 06:08:06;;;;;;;8.05;3.95;;;20.80;99.90;;;;;;5105754;27;20115;-56
2022/09/01 06:10:36;;;;;;;7.13;4.90;;;20.70;99.90;;;;;;5106648;27;20487;-56
2022/09/01 06:13:02;;;;;;;7.65;3.78;;;20.70;99.90;;;;;;5113461;28;20042;-57
2022/09/01 06:15:29;;;;;;;7.68;4.60;;;20.60;99.90;;;;;;5103730;27;20030;-56
2022/09/01 06:17:59;;;;;;;10.45;5.22;;;20.50;99.90;;;;;;5101982;28;20081;-57
2022/09/01 06:20:26;;;;;;;4.85;3.20;;;20.60;99.90;;;;;;5113183;27;20107;-56
2022/09/01 06:22:52;;;;;;;7.38;4.97;;;20.30;99.90;;;;;;5105516;27;20407;-56
2022/09/01 06:25:20;;;;;;;6.50;4.28;;;20.30;99.90;;;;;;5100516;28;20016;-56
2022/09/01 06:27:47;;;;;;;8.30;4.68;;;20.30;99.90;;;;;;5107510;27;20024;-56
2022/09/01 06:30:17;;;;;;;8.80;4.80;;;20.30;99.90;;;;;;5038072;28;20064;-55
2022/09/01 06:32:43;;;;;;;10.20;4.60;;;20.30;99.90;;;;;;5039964;28;20034;-56
2022/09/01 06:35:16;;;;;;;7.05;4.38;;;20.30;99.90;;;;;;5040272;28;20087;-56
2022/09/01 06:37:44;;;;;;;7.30;4.05;;;20.20;99.90;;;;;;5039669;28;20036;-56
2022/09/01 06:40:16;;;;;;;5.53;3.85;;;19.90;99.90;;;;;;5043320;28;20079;-56
2022/09/01 06:42:49;;;;;;;6.25;3.38;;;;;;;;;;5048945;28;20037;-56
2022/09/01 06:45:19;;;;;;;6.40;3.83;;;19.70;99.90;;;;;;5044410;28;20033;-54
2022/09/01 06:47:46;;;;;;;6.63;3.92;;;19.70;99.90;;;;;;5028710;28;20540;-55
2022/09/01 06:50:14;;;;;;;7.35;4.70;;;19.90;99.90;;;;;;5038062;28;20036;-59
2022/09/01 06:52:43;;;;;;;5.53;3.53;;;19.90;99.90;;;;;;5035327;28;20100;-56
2022/09/01 06:55:11;;;;;;;6.30;3.40;;;19.80;99.90;;;;;;5038380;28;20947;-59
2022/09/01 06:57:39;;;;;;;6.40;3.13;;;19.70;99.90;;;;;;5047710;28;20125;-56
2022/09/01 07:00:19;;;;;;;6.15;3.63;;;19.70;99.90;;;;;;5045404;28;20517;-57
2022/09/01 07:02:46;;;;;;;10.40;3.88;;;19.60;99.90;;;;;;5085310;28;20119;-57
2022/09/01 07:05:16;;;;;;;10.55;4.32;;;19.60;99.90;;;;;;5085005;28;20028;-59
2022/09/01 07:07:46;;;;;;;8.85;3.85;;;19.80;99.90;;;;;;5094973;27;20057;-59
2022/09/01 07:10:13;;;;;;;6.90;2.92;;;19.80;99.90;;;;;;5107950;27;20031;-60
2022/09/01 07:12:44;;;;;;;7.35;2.75;;;19.70;99.90;;;;;;5111855;27;20036;-55
2022/09/01 07:15:14;;;;;;;4.75;2.75;;;19.80;99.90;;;;;;5109121;27;20035;-59
2022/09/01 07:17:41;;;;;;;6.88;2.17;;;19.80;99.90;;;;;;5107379;27;20080;-58
2022/09/01 07:20:10;;;;;;;6.50;2.60;;;19.70;99.90;;;;;;5107100;27;20445;-59
2022/09/01 07:22:36;;;;;;;4.47;2.20;;;19.70;99.90;;;;;;5109632;27;20031;-56
2022/09/01 07:25:01;;;;;;;6.43;2.28;;;19.80;99.90;;;;;;5110561;27;20023;-57
2022/09/01 07:27:27;;;;;;;3.20;1.80;;;19.70;99.90;;;;;;5073539;28;20034;-58
2022/09/01 07:29:55;;;;;;;12.85;3.70;;;19.70;99.90;;;;;;5092866;28;20067;-56
2022/09/01 07:32:22;;;;;;;5.63;2.95;;;19.80;99.90;;;;;;5088991;28;20028;-57
2022/09/01 07:34:48;;;;;;;4.05;2.25;;;19.80;99.90;;;;;;5090094;28;20453;-55
2022/09/01 07:37:14;;;;;;;5.18;2.05;;;19.80;99.90;;;;;;5111155;27;20085;-57
2022/09/01 07:39:46;;;;;;;4.53;2.38;;;19.80;99.90;;;;;;5109106;27;20392;-56
2022/09/01 07:42:14;;;;;;;6.35;2.10;;;20.00;99.90;;;;;;5106792;27;20110;-58
2022/09/01 07:44:40;;;;;;;6.80;2.70;;;20.10;99.90;;;;;;5111709;27;20031;-59
2022/09/01 07:47:07;;;;;;;4.35;2.30;;;20.30;99.90;;;;;;5107150;28;20023;-57
2022/09/01 07:49:35;;;;;;;8.90;3.55;;;20.40;99.90;;;;;;5108906;28;20378;-58
2022/09/01 07:52:02;;;;;;;7.40;2.60;;;20.30;99.90;;;;;;5104964;27;20032;-57
2022/09/01 07:54:29;;;;;;;8.13;2.20;;;20.20;99.90;;;;;;5107941;27;20020;-58
2022/09/01 07:56:55;;;;;;;7.63;2.33;;;20.00;99.90;;;;;;5108518;27;20043;-59
2022/09/01 07:59:21;;;;;;;4.63;2.20;;;20.10;99.90;;;;;;5108322;27;20413;-58
2022/09/01 08:01:46;;;;;;;3.13;2.13;;;20.10;99.90;;;;;;5110399;27;20034;-57
2022/09/01 08:04:12;;;;;;;3.53;2.28;;;20.10;99.90;;;;;;5110131;28;20152;-58
2022/09/01 08:06:38;;;;;;;5.93;2.47;;;20.30;99.90;;;;;;5100269;28;20093;-56
2022/09/01 08:09:09;;;;;;;7.40;2.80;;;20.20;99.90;;;;;;5100535;28;20024;-56
2022/09/01 08:11:35;;;;;;;3.22;2.10;;;20.10;99.90;;;;;;5099423;28;20120;-59
2022/09/01 08:14:01;;;;;;;4.63;2.28;;;20.10;99.90;;;;;;5095573;28;20024;-56
2022/09/01 08:16:29;;;;;;;6.65;2.38;;;20.20;99.90;;;;;;5093211;27;20020;-58
2022/09/01 08:18:55;;;;;;;4.25;2.63;;;20.40;99.90;;;;;;5095172;28;20032;-58
2022/09/01 08:21:22;;;;;;;4.60;2.67;;;20.50;99.90;;;;;;5095828;27;20032;-56
2022/09/01 08:23:49;;;;;;;7.70;2.70;;;20.60;99.90;;;;;;5059802;28;20039;-57
2022/09/01 08:26:18;;;;;;;3.88;2.63;;;20.60;99.90;;;;;;5098326;28;20185;-58
2022/09/01 08:28:44;;;;;;;5.07;2.33;;;20.60;99.90;;;;;;5101292;28;20027;-56
2022/09/01 08:31:14;;;;;;;3.20;2.35;;;20.70;99.90;;;;;;5083986;28;20052;-58
2022/09/01 08:33:41;;;;;;;7.63;2.97;;;20.80;99.90;;;;;;5086118;28;20038;-60
2022/09/01 08:36:09;;;;;;;7.72;3.42;;;20.90;99.90;;;;;;5078357;28;20063;-58
2022/09/01 08:38:36;;;;;;;9.38;2.70;;;21.00;99.90;;;;;;5103635;28;20034;-55
2022/09/01 08:41:04;;;;;;;3.53;2.40;;;21.10;99.90;;;;;;5105846;28;20094;-58
2022/09/01 08:43:36;;;;;;;4.63;1.95;;;21.30;99.90;;;;;;5064995;28;20112;-55
2022/09/01 08:46:25;;;;;;;5.88;2.70;;;21.20;99.90;;;;;;5064486;28;20139;-57
2022/09/01 08:49:05;;;;;;;3.95;2.60;;;21.40;99.90;;;;;;5029158;28;20040;-56
2022/09/01 08:51:42;;;;;;;5.97;2.28;;;21.60;99.90;;;;;;5011353;28;20036;-57
2022/09/01 08:54:13;;;;;;;5.97;2.40;;;21.70;99.90;;;;;;5028283;28;20095;-59
2022/09/01 08:56:39;;;;;;;12.90;3.50;;;21.70;99.90;;;;;;5028440;28;20389;-56
2022/09/01 08:59:08;;;;;;;4.47;2.72;;;21.70;99.90;;;;;;5028309;28;20052;-56
2022/09/01 09:02:10;;;;;;;5.20;3.00;;;21.70;99.90;;;;;;5029143;28;20057;-59
2022/09/01 09:05:00;;;;;;;6.93;3.17;;;21.70;99.90;;;;;;4961890;28;20090;-56
2022/09/01 09:07:41;;;;;;;5.72;3.47;;;21.70;99.90;;;;;;4964803;28;20067;-58
2022/09/01 09:10:29;;;;;;;8.07;3.38;;;21.70;99.90;;;;;;4960910;28;20529;-58
2022/09/01 09:13:21;;;;;;;6.80;3.50;;;21.80;99.90;;;;;;4956073;28;20082;-58
2022/09/01 09:15:57;;;;;;;5.68;3.03;;;22.00;99.90;;;;;;4986857;28;20132;-57
2022/09/01 09:18:53;;;;;;;5.82;2.80;;;22.10;99.90;;;;;;4985739;28;20089;-57
2022/09/01 09:21:37;;;;;;;6.45;2.92;;;22.10;99.90;;;;;;4964112;28;20481;-58
2022/09/01 09:24:46;;;;;;;6.43;2.63;;;22.00;99.90;;;;;;4963131;28;20019;-57
2022/09/01 09:27:36;;;;;;;5.45;3.10;;;21.80;99.90;;;;;;4986224;28;20042;-57
2022/09/01 09:30:21;;;;;;;3.75;2.63;;;21.70;99.90;;;;;;4973277;28;20033;-60
2022/09/01 09:32:52;;;;;;;5.72;3.08;;;21.80;99.90;;;;;;4990589;28;20050;-58
2022/09/01 09:35:30;;;;;;;7.63;3.65;;;21.90;99.90;;;;;;4954439;28;20389;-57
2022/09/01 09:38:27;;;;;;;6.97;3.38;;;22.00;99.90;;;;;;4985046;28;20514;-55
2022/09/01 09:41:03;;;;;;;4.38;2.80;;;21.80;99.90;;;;;;4995117;28;20445;-56
2022/09/01 09:43:34;;;;;;;5.85;3.13;;;21.70;99.90;;;;;;5009951;28;20497;-56
2022/09/01 09:46:26;;;;;;;4.50;2.70;;;21.70;99.90;;;;;;5006130;28;20568;-57
2022/09/01 09:49:13;;;;;;;4.20;2.75;;;21.40;99.90;;;;;;5004848;28;20129;-59
2022/09/01 09:51:42;;;;;;;5.05;3.10;;;21.40;99.90;;;;;;5004024;28;20434;-56
2022/09/01 09:54:12;;;;;;;5.05;3.30;;;21.40;99.90;;;;;;5010140;28;20188;-59
2022/09/01 09:56:40;;;;;;;7.07;3.70;;;21.50;99.90;;;;;;5002537;28;20053;-57
2022/09/01 09:59:28;;;;;;;4.85;3.13;;;21.70;99.90;;;;;;5106343;28;20081;-59
2022/09/01 10:02:25;;;;;;;10.10;3.83;;;21.60;99.90;;;;;;5098484;28;20023;-55
2022/09/01 10:04:51;;;;;;;5.43;2.97;;;21.90;99.90;;;;;;5108990;28;20740;-57
2022/09/01 10:07:36;;;;;;;6.43;3.40;;;22.10;99.90;;;;;;5107125;28;20015;-59
2022/09/01 10:10:30;;;;;;;7.30;3.83;;;22.10;99.90;;;;;;5108918;28;20055;-56
2022/09/01 10:12:57;;;;;;;4.82;3.60;;;22.20;99.90;;;;;;5074835;28;20396;-56
2022/09/01 10:15:27;;;;;;;14.82;3.78;;;22.30;99.90;;;;;;5099792;28;20114;-57
2022/09/01 10:17:57;;;;;;;4.82;3.60;;;22.30;99.90;;;;;;5109655;28;20039;-58
2022/09/01 10:20:25;;;;;;;5.30;3.47;;;22.50;99.90;;;;;;5109241;28;20032;-56
2022/09/01 10:22:52;;;;;;;8.45;4.15;;;22.40;99.90;;;;;;5107823;28;20489;-59
2022/09/01 10:25:29;;;;;;;8.63;3.65;;;22.50;99.90;;;;;;5105649;28;20034;-57
2022/09/01 10:28:01;;;;;;;6.50;3.20;;;22.30;99.90;;;;;;5099178;27;20686;-57
2022/09/01 10:30:29;;;;;;;6.53;4.15;;;21.80;99.90;;;;;;5108175;27;21055;-57
2022/09/01 10:32:57;;;;;;;17.52;4.72;;;21.60;99.90;;;;;;5107149;27;20040;-56
2022/09/01 10:35:35;;;;;;;8.27;4.22;;;21.70;99.90;;;;;;5069920;28;20078;-56
2022/09/01 10:38:08;;;;;;;7.88;3.63;;;21.80;99.90;;;;;;5058108;28;20056;-58
2022/09/01 10:40:44;;;;;;;8.55;4.18;;;21.90;99.90;;;;;;5064620;28;20074;-56
2022/09/01 10:43:42;;;;;;;10.35;6.65;;;21.70;99.90;;;;;;5015447;28;20131;-56
2022/09/01 10:46:27;;;;;;;12.50;5.63;;;21.40;99.90;;;;;;5061982;28;20106;-56
2022/09/01 10:48:55;;;;;;;11.32;5.57;;;21.30;99.90;;;;;;5064551;28;20415;-57
2022/09/01 10:51:21;;;;;;;9.30;5.50;;;21.20;99.90;;;;;;5065888;28;20447;-59
2022/09/01 10:53:54;;;;;;;8.18;4.22;;;21.50;99.90;;;;;;5067469;28;20031;-56
2022/09/01 10:56:40;;;;;;;11.30;5.03;;;21.30;99.90;;;;;;5066706;28;20183;-56
2022/09/01 10:59:21;;;;;;;10.15;4.68;;;21.40;99.90;;;;;;5065719;28;20029;-58
2022/09/01 11:01:49;;;;;;;12.20;6.22;;;21.20;99.90;;;;;;5065404;28;20074;-57
2022/09/01 11:04:44;;;;;;;8.27;3.47;;;21.30;99.90;;;;;;5068382;28;20035;-57
2022/09/01 11:07:25;;;;;;;14.73;5.28;;;21.10;99.90;;;;;;5078231;27;20384;-59
2022/09/01 11:10:18;;;;;;;8.88;4.70;;;21.10;99.90;;;;;;5109088;27;20024;-58
2022/09/01 11:12:44;;;;;;;8.48;4.97;;;21.00;99.90;;;;;;5107165;27;20098;-58
2022/09/01 11:15:13;;;;;;;10.55;4.80;;;21.10;99.90;;;;;;5112726;27;20058;-59
2022/09/01 11:17:56;;;;;;;16.13;6.30;;;21.00;99.90;;;;;;5106600;27;20123;-59
2022/09/01 11:20:49;;;;;;;10.20;4.85;;;21.10;99.90;;;;;;5109041;27;20016;-58
2022/09/01 11:23:29;;;;;;;16.05;5.93;;;20.90;99.90;;;;;;5069211;28;20052;-59
2022/09/01 11:26:21;;;;;;;8.20;4.15;;;21.10;99.90;;;;;;5067746;28;20049;-58
2022/09/01 11:28:48;;;;;;;7.45;4.88;;;21.20;99.90;;;;;;5068435;28;20520;-58
2022/09/01 11:31:28;;;;;;;9.38;4.85;;;21.20;99.90;;;;;;5068633;28;20393;-59
2022/09/01 11:34:09;;;;;;;8.20;4.35;;;21.20;99.90;;;;;;5067459;28;20040;-57
2022/09/01 11:36:46;;;;;;;5.28;3.80;;;21.40;99.90;;;;;;5067893;28;20028;-57
2022/09/01 11:39:15;;;;;;;5.45;4.03;;;21.20;99.90;;;;;;5065822;28;20433;-56
2022/09/01 11:42:02;;;;;;;5.60;4.07;;;21.30;99.90;;;;;;5066677;28;20044;-57
2022/09/01 11:44:42;;;;;;;6.07;3.50;;;21.30;99.90;;;;;;5066062;28;20072;-61
2022/09/01 11:47:18;;;;;;;5.45;3.47;;;21.20;99.90;;;;;;5066388;28;20067;-59
2022/09/01 11:50:17;;;;;;;5.60;3.53;;;21.30;99.90;;;;;;5027062;28;20042;-59
2022/09/01 11:52:56;;;;;;;8.52;3.80;;;21.30;99.90;;;;;;4968165;28;20065;-56
2022/09/01 11:55:32;;;;;;;8.63;4.53;;;21.20;99.90;;;;;;4969573;28;20035;-54
2022/09/01 11:57:58;;;;;;;6.80;3.38;;;21.30;99.90;;;;;;4970281;28;20519;-56
2022/09/01 12:00:32;;;;;;;7.13;3.80;;;21.40;99.90;;;;;;4972105;28;20042;-50
2022/09/01 12:02:58;;;;;;;7.43;4.55;;;21.40;99.90;;;;;;4951359;28;20397;-50
2022/09/01 12:05:31;;;;;;;7.35;4.30;;;21.30;99.90;;;;;;4989458;28;20038;-50
2022/09/01 12:07:57;;;;;;;6.57;4.07;;;21.10;99.90;;;;;;4983199;28;20155;-49
2022/09/01 12:10:26;;;;;;;9.60;4.80;;;21.10;99.90;;;;;;4986053;28;20049;-52
2022/09/01 12:13:05;;;;;;;5.93;3.80;;;21.20;99.90;;;;;;4988388;28;20042;-50
2022/09/01 12:15:33;;;;;;;11.13;3.60;;;20.90;99.90;;;;;;5026365;28;20478;-51
2022/09/01 12:18:20;;;;;;;5.28;3.40;;;20.80;99.90;;;;;;5028085;28;20061;-50
2022/09/01 12:20:48;;;;;;;4.63;3.50;;;20.60;99.90;;;;;;5023701;28;20197;-50
2022/09/01 12:23:36;;;;;;;6.05;3.75;;;20.60;99.90;;;;;;5028494;28;20053;-49
2022/09/01 12:26:12;;;;;;;5.95;4.00;;;20.70;99.90;;;;;;5028182;28;20108;-49
2022/09/01 12:28:40;;;;;;;9.57;4.40;;;20.70;99.90;;;;;;5036075;28;20133;-49
2022/09/01 12:31:15;;;;;;;3.60;2.40;;;20.60;99.90;;;;;;5098877;28;20032;-50
2022/09/01 12:33:42;;;;;;;6.43;4.20;;;20.30;99.90;;;;;;5102160;28;20063;-49
2022/09/01 12:36:20;;;;;;;6.00;3.72;;;20.30;99.90;;;;;;5068996;28;20043;-49
2022/09/01 12:38:47;;;;;;;5.43;3.90;;;20.40;99.90;;;;;;5100047;28;20047;-49
2022/09/01 12:41:26;;;;;;;6.95;4.38;;;20.30;99.90;;;;;;5098277;28;20111;-49
2022/09/01 12:43:52;;;;;;;6.28;4.65;;;20.20;99.90;;;;;;5105176;28;20415;-49
2022/09/01 12:46:42;;;;;;;6.38;4.65;;;20.30;99.90;;;;;;5001572;28;20036;-49
2022/09/01 12:49:23;;;;;;;7.78;4.85;;;20.40;99.90;;;;;;5098478;28;20123;-49
2022/09/01 12:52:18;;;;;;;7.75;4.30;;;20.30;99.90;;;;;;5108299;28;20088;-49
2022/09/01 12:55:10;;;;;;;5.38;4.25;;;20.40;99.90;;;;;;5101977;28;20028;-49
2022/09/01 12:57:37;;;;;;;;;;;20.00;99.90;;;;;;5100876;28;20127;-49
2022/09/01 13:00:18;;;;;;;6.03;4.22;;;20.00;99.90;;;;;;5108316;28;19912;-49
2022/09/01 13:03:01;;;;;;;6.85;4.10;;;19.90;99.90;;;;;;5104924;28;20456;-49
2022/09/01 13:05:30;;;;;;;8.80;4.22;;;19.70;99.90;;;;;;5109976;28;20062;-50
2022/09/01 13:08:07;;;;;;;8.88;4.28;;;19.80;99.90;;;;;;5104085;28;20066;-49
2022/09/01 13:10:46;;;;;;;9.23;4.60;;;19.80;99.90;;;;;;5103026;28;20130;-50